sensor_id;sensor_type;location;lat;lon;timestamp;P1;durP1;ratioP1;P2;durP2;ratioP2
7142;SDS011;3613;48.902;9.204;2023-06-14T00:02:15;7.30;;;4.17;;
7142;SDS011;3613;48.902;9.204;2023-06-14T00:04:45;5.73;;;4.20;;
7142;SDS011;3613;48.902;9.204;2023-06-14T00:07:16;9.40;;;4.70;;
7142;SDS011;3613;48.902;9.204;2023-06-14T00:09:45;6.27;;;4.50;;
7142;SDS011;3613;48.902;9.204;2023-06-14T00:12:13;4.63;;;4.17;;
7142;SDS011;3613;48.902;9.204;2023-06-14T00:14:40;6.00;;;4.23;;
7142;SDS011;3613;48.902;9.204;2023-06-14T00:17:06;5.43;;;3.83;;
7142;SDS011;3613;48.902;9.204;2023-06-14T00:19:32;6.00;;;4.37;;
7142;SDS011;3613;48.902;9.204;2023-06-14T00:21:59;5.30;;;4.27;;
7142;SDS011;3613;48.902;9.204;2023-06-14T00:24:25;5.50;;;4.13;;
7142;SDS011;3613;48.902;9.204;2023-06-14T00:26:51;6.13;;;4.23;;
7142;SDS011;3613;48.902;9.204;2023-06-14T00:29:20;5.43;;;4.20;;
7142;SDS011;3613;48.902;9.204;2023-06-14T00:31:46;6.43;;;4.67;;
7142;SDS011;3613;48.902;9.204;2023-06-14T00:34:12;4.33;;;3.93;;
7142;SDS011;3613;48.902;9.204;2023-06-14T00:36:40;4.73;;;3.63;;
7142;SDS011;3613;48.902;9.204;2023-06-14T00:39:06;6.33;;;4.30;;
7142;SDS011;3613;48.902;9.204;2023-06-14T00:41:34;5.90;;;4.20;;
7142;SDS011;3613;48.902;9.204;2023-06-14T00:44:03;5.70;;;4.03;;
7142;SDS011;3613;48.902;9.204;2023-06-14T00:46:29;5.57;;;4.03;;
7142;SDS011;3613;48.902;9.204;2023-06-14T00:48:56;4.97;;;4.03;;
7142;SDS011;3613;48.902;9.204;2023-06-14T00:51:28;6.43;;;5.00;;
7142;SDS011;3613;48.902;9.204;2023-06-14T00:53:53;5.73;;;4.27;;
7142;SDS011;3613;48.902;9.204;2023-06-14T00:56:19;5.20;;;4.13;;
7142;SDS011;3613;48.902;9.204;2023-06-14T00:58:48;5.37;;;4.57;;
7142;SDS011;3613;48.902;9.204;2023-06-14T01:01:14;5.33;;;4.60;;
7142;SDS011;3613;48.902;9.204;2023-06-14T01:03:40;7.37;;;3.80;;
7142;SDS011;3613;48.902;9.204;2023-06-14T01:06:15;6.07;;;4.03;;
7142;SDS011;3613;48.902;9.204;2023-06-14T01:11:27;6.17;;;4.40;;
7142;SDS011;3613;48.902;9.204;2023-06-14T01:13:56;7.77;;;4.50;;
7142;SDS011;3613;48.902;9.204;2023-06-14T01:16:26;4.80;;;4.20;;
7142;SDS011;3613;48.902;9.204;2023-06-14T01:18:53;6.00;;;4.50;;
7142;SDS011;3613;48.902;9.204;2023-06-14T01:21:24;7.63;;;4.63;;
7142;SDS011;3613;48.902;9.204;2023-06-14T01:23:51;4.53;;;4.00;;
7142;SDS011;3613;48.902;9.204;2023-06-14T01:26:20;6.63;;;4.67;;
7142;SDS011;3613;48.902;9.204;2023-06-14T01:28:46;5.97;;;4.50;;
7142;SDS011;3613;48.902;9.204;2023-06-14T01:31:17;7.87;;;4.40;;
7142;SDS011;3613;48.902;9.204;2023-06-14T01:33:49;6.30;;;4.80;;
7142;SDS011;3613;48.902;9.204;2023-06-14T01:36:16;8.17;;;4.83;;
7142;SDS011;3613;48.902;9.204;2023-06-14T01:38:47;5.77;;;4.20;;
7142;SDS011;3613;48.902;9.204;2023-06-14T01:41:17;6.07;;;4.60;;
7142;SDS011;3613;48.902;9.204;2023-06-14T01:43:45;5.90;;;4.80;;
7142;SDS011;3613;48.902;9.204;2023-06-14T01:46:12;6.10;;;4.47;;
7142;SDS011;3613;48.902;9.204;2023-06-14T01:48:40;4.57;;;4.10;;
7142;SDS011;3613;48.902;9.204;2023-06-14T01:51:08;6.83;;;4.47;;
7142;SDS011;3613;48.902;9.204;2023-06-14T01:53:34;6.97;;;4.60;;
7142;SDS011;3613;48.902;9.204;2023-06-14T01:56:01;6.30;;;4.70;;
7142;SDS011;3613;48.902;9.204;2023-06-14T01:58:27;6.93;;;4.43;;
7142;SDS011;3613;48.902;9.204;2023-06-14T02:00:53;6.70;;;4.47;;
7142;SDS011;3613;48.902;9.204;2023-06-14T02:03:20;6.57;;;4.70;;
7142;SDS011;3613;48.902;9.204;2023-06-14T02:05:46;4.60;;;4.20;;
7142;SDS011;3613;48.902;9.204;2023-06-14T02:08:14;9.37;;;4.67;;
7142;SDS011;3613;48.902;9.204;2023-06-14T02:10:42;6.87;;;4.73;;
7142;SDS011;3613;48.902;9.204;2023-06-14T02:13:08;5.00;;;4.17;;
7142;SDS011;3613;48.902;9.204;2023-06-14T02:15:34;5.00;;;3.90;;
7142;SDS011;3613;48.902;9.204;2023-06-14T02:18:01;7.23;;;5.37;;
7142;SDS011;3613;48.902;9.204;2023-06-14T02:20:28;7.17;;;5.23;;
7142;SDS011;3613;48.902;9.204;2023-06-14T02:22:54;5.37;;;4.83;;
7142;SDS011;3613;48.902;9.204;2023-06-14T02:25:20;5.80;;;4.60;;
7142;SDS011;3613;48.902;9.204;2023-06-14T02:27:48;5.53;;;4.60;;
7142;SDS011;3613;48.902;9.204;2023-06-14T02:30:14;5.90;;;4.57;;
7142;SDS011;3613;48.902;9.204;2023-06-14T02:32:40;5.70;;;4.37;;
7142;SDS011;3613;48.902;9.204;2023-06-14T02:35:07;5.03;;;4.07;;
7142;SDS011;3613;48.902;9.204;2023-06-14T02:37:33;6.40;;;4.73;;
7142;SDS011;3613;48.902;9.204;2023-06-14T02:40:00;6.43;;;4.77;;
7142;SDS011;3613;48.902;9.204;2023-06-14T02:42:25;6.47;;;5.10;;
7142;SDS011;3613;48.902;9.204;2023-06-14T02:44:56;6.67;;;5.20;;
7142;SDS011;3613;48.902;9.204;2023-06-14T02:47:24;10.03;;;5.20;;
7142;SDS011;3613;48.902;9.204;2023-06-14T02:49:53;5.47;;;4.77;;
7142;SDS011;3613;48.902;9.204;2023-06-14T02:52:18;6.43;;;4.90;;
7142;SDS011;3613;48.902;9.204;2023-06-14T02:54:48;7.23;;;4.73;;
7142;SDS011;3613;48.902;9.204;2023-06-14T02:57:14;4.90;;;4.40;;
7142;SDS011;3613;48.902;9.204;2023-06-14T02:59:39;7.50;;;5.27;;
7142;SDS011;3613;48.902;9.204;2023-06-14T03:02:05;6.70;;;5.17;;
7142;SDS011;3613;48.902;9.204;2023-06-14T03:04:31;9.03;;;5.83;;
7142;SDS011;3613;48.902;9.204;2023-06-14T03:07:02;6.23;;;5.03;;
7142;SDS011;3613;48.902;9.204;2023-06-14T03:09:36;6.93;;;5.13;;
7142;SDS011;3613;48.902;9.204;2023-06-14T03:12:02;5.63;;;5.03;;
7142;SDS011;3613;48.902;9.204;2023-06-14T03:14:29;6.83;;;5.37;;
7142;SDS011;3613;48.902;9.204;2023-06-14T03:16:55;9.63;;;4.90;;
7142;SDS011;3613;48.902;9.204;2023-06-14T03:19:22;7.33;;;5.27;;
7142;SDS011;3613;48.902;9.204;2023-06-14T03:21:50;6.30;;;5.20;;
7142;SDS011;3613;48.902;9.204;2023-06-14T03:24:15;9.20;;;5.10;;
7142;SDS011;3613;48.902;9.204;2023-06-14T03:26:44;7.80;;;5.50;;
7142;SDS011;3613;48.902;9.204;2023-06-14T03:29:14;5.97;;;5.07;;
7142;SDS011;3613;48.902;9.204;2023-06-14T03:31:55;6.00;;;5.17;;
7142;SDS011;3613;48.902;9.204;2023-06-14T03:34:23;5.83;;;5.03;;
7142;SDS011;3613;48.902;9.204;2023-06-14T03:36:51;7.67;;;5.50;;
7142;SDS011;3613;48.902;9.204;2023-06-14T03:39:18;6.97;;;4.97;;
7142;SDS011;3613;48.902;9.204;2023-06-14T03:41:44;10.50;;;6.03;;
7142;SDS011;3613;48.902;9.204;2023-06-14T03:44:13;6.17;;;5.13;;
7142;SDS011;3613;48.902;9.204;2023-06-14T03:46:43;6.47;;;5.40;;
7142;SDS011;3613;48.902;9.204;2023-06-14T03:49:08;7.57;;;5.37;;
7142;SDS011;3613;48.902;9.204;2023-06-14T03:51:35;9.97;;;5.30;;
7142;SDS011;3613;48.902;9.204;2023-06-14T03:54:01;8.90;;;5.43;;
7142;SDS011;3613;48.902;9.204;2023-06-14T03:56:27;6.17;;;5.20;;
7142;SDS011;3613;48.902;9.204;2023-06-14T03:58:53;7.37;;;5.20;;
7142;SDS011;3613;48.902;9.204;2023-06-14T04:01:18;7.60;;;5.90;;
7142;SDS011;3613;48.902;9.204;2023-06-14T04:03:45;6.90;;;5.03;;
7142;SDS011;3613;48.902;9.204;2023-06-14T04:06:10;7.00;;;5.17;;
7142;SDS011;3613;48.902;9.204;2023-06-14T04:08:36;6.47;;;5.07;;
7142;SDS011;3613;48.902;9.204;2023-06-14T04:11:04;7.47;;;5.30;;
7142;SDS011;3613;48.902;9.204;2023-06-14T04:13:30;6.00;;;5.07;;
7142;SDS011;3613;48.902;9.204;2023-06-14T04:15:57;9.27;;;5.60;;
7142;SDS011;3613;48.902;9.204;2023-06-14T04:18:24;6.80;;;5.27;;
7142;SDS011;3613;48.902;9.204;2023-06-14T04:20:50;5.97;;;4.97;;
7142;SDS011;3613;48.902;9.204;2023-06-14T04:23:16;6.67;;;4.63;;
7142;SDS011;3613;48.902;9.204;2023-06-14T04:25:43;11.00;;;5.20;;
7142;SDS011;3613;48.902;9.204;2023-06-14T04:28:14;5.77;;;5.17;;
7142;SDS011;3613;48.902;9.204;2023-06-14T04:30:41;6.73;;;5.03;;
7142;SDS011;3613;48.902;9.204;2023-06-14T04:33:06;7.70;;;5.50;;
7142;SDS011;3613;48.902;9.204;2023-06-14T04:35:35;7.60;;;5.40;;
7142;SDS011;3613;48.902;9.204;2023-06-14T04:38:02;9.50;;;5.83;;
7142;SDS011;3613;48.902;9.204;2023-06-14T04:40:34;6.87;;;5.00;;
7142;SDS011;3613;48.902;9.204;2023-06-14T04:43:10;5.60;;;4.63;;
7142;SDS011;3613;48.902;9.204;2023-06-14T04:45:40;7.10;;;4.70;;
7142;SDS011;3613;48.902;9.204;2023-06-14T04:48:09;7.70;;;4.70;;
7142;SDS011;3613;48.902;9.204;2023-06-14T04:50:37;6.23;;;5.07;;
7142;SDS011;3613;48.902;9.204;2023-06-14T04:53:02;9.27;;;5.50;;
7142;SDS011;3613;48.902;9.204;2023-06-14T04:55:28;9.57;;;4.80;;
7142;SDS011;3613;48.902;9.204;2023-06-14T04:57:54;7.60;;;5.87;;
7142;SDS011;3613;48.902;9.204;2023-06-14T05:00:20;7.27;;;5.93;;
7142;SDS011;3613;48.902;9.204;2023-06-14T05:02:46;7.40;;;4.87;;
7142;SDS011;3613;48.902;9.204;2023-06-14T05:05:14;8.03;;;5.53;;
7142;SDS011;3613;48.902;9.204;2023-06-14T05:07:40;7.20;;;5.27;;
7142;SDS011;3613;48.902;9.204;2023-06-14T05:10:06;6.00;;;4.93;;
7142;SDS011;3613;48.902;9.204;2023-06-14T05:12:35;7.03;;;5.30;;
7142;SDS011;3613;48.902;9.204;2023-06-14T05:15:04;6.03;;;5.17;;
7142;SDS011;3613;48.902;9.204;2023-06-14T05:17:30;6.03;;;4.90;;
7142;SDS011;3613;48.902;9.204;2023-06-14T05:19:55;5.77;;;4.90;;
7142;SDS011;3613;48.902;9.204;2023-06-14T05:22:21;6.53;;;5.50;;
7142;SDS011;3613;48.902;9.204;2023-06-14T05:24:47;7.47;;;5.37;;
7142;SDS011;3613;48.902;9.204;2023-06-14T05:27:13;6.23;;;5.53;;
7142;SDS011;3613;48.902;9.204;2023-06-14T05:29:39;5.50;;;5.00;;
7142;SDS011;3613;48.902;9.204;2023-06-14T05:32:05;6.03;;;5.33;;
7142;SDS011;3613;48.902;9.204;2023-06-14T05:34:31;6.73;;;6.07;;
7142;SDS011;3613;48.902;9.204;2023-06-14T05:36:57;9.13;;;5.63;;
7142;SDS011;3613;48.902;9.204;2023-06-14T05:39:23;5.83;;;5.20;;
7142;SDS011;3613;48.902;9.204;2023-06-14T05:41:49;5.43;;;4.90;;
7142;SDS011;3613;48.902;9.204;2023-06-14T05:44:15;8.50;;;5.83;;
7142;SDS011;3613;48.902;9.204;2023-06-14T05:46:41;8.80;;;5.17;;
7142;SDS011;3613;48.902;9.204;2023-06-14T05:49:07;6.97;;;4.90;;
7142;SDS011;3613;48.902;9.204;2023-06-14T05:51:32;6.87;;;5.50;;
7142;SDS011;3613;48.902;9.204;2023-06-14T05:53:59;6.63;;;4.80;;
7142;SDS011;3613;48.902;9.204;2023-06-14T05:56:24;5.63;;;5.00;;
7142;SDS011;3613;48.902;9.204;2023-06-14T05:58:52;6.27;;;5.07;;
7142;SDS011;3613;48.902;9.204;2023-06-14T06:01:18;7.20;;;4.97;;
7142;SDS011;3613;48.902;9.204;2023-06-14T06:03:44;5.33;;;4.67;;
7142;SDS011;3613;48.902;9.204;2023-06-14T06:06:11;9.00;;;7.07;;
7142;SDS011;3613;48.902;9.204;2023-06-14T06:08:37;6.83;;;4.93;;
7142;SDS011;3613;48.902;9.204;2023-06-14T06:11:03;5.68;;;5.00;;
7142;SDS011;3613;48.902;9.204;2023-06-14T06:13:29;4.50;;;4.10;;
7142;SDS011;3613;48.902;9.204;2023-06-14T06:15:57;6.70;;;4.70;;
7142;SDS011;3613;48.902;9.204;2023-06-14T06:18:23;6.87;;;4.73;;
7142;SDS011;3613;48.902;9.204;2023-06-14T06:20:49;5.47;;;4.63;;
7142;SDS011;3613;48.902;9.204;2023-06-14T06:23:15;4.87;;;4.37;;
7142;SDS011;3613;48.902;9.204;2023-06-14T06:25:42;4.97;;;4.43;;
7142;SDS011;3613;48.902;9.204;2023-06-14T06:28:08;6.32;;;4.47;;
7142;SDS011;3613;48.902;9.204;2023-06-14T06:30:34;6.57;;;4.35;;
7142;SDS011;3613;48.902;9.204;2023-06-14T06:33:01;5.68;;;4.70;;
7142;SDS011;3613;48.902;9.204;2023-06-14T06:35:29;5.65;;;4.60;;
7142;SDS011;3613;48.902;9.204;2023-06-14T06:37:55;6.47;;;4.70;;
7142;SDS011;3613;48.902;9.204;2023-06-14T06:40:22;7.25;;;4.90;;
7142;SDS011;3613;48.902;9.204;2023-06-14T06:42:47;7.10;;;4.60;;
7142;SDS011;3613;48.902;9.204;2023-06-14T06:45:15;8.00;;;5.20;;
7142;SDS011;3613;48.902;9.204;2023-06-14T06:47:40;7.83;;;4.93;;
7142;SDS011;3613;48.902;9.204;2023-06-14T06:50:06;9.03;;;5.30;;
7142;SDS011;3613;48.902;9.204;2023-06-14T06:52:32;6.73;;;4.50;;
7142;SDS011;3613;48.902;9.204;2023-06-14T06:54:58;8.20;;;4.80;;
7142;SDS011;3613;48.902;9.204;2023-06-14T06:57:24;6.63;;;4.93;;
7142;SDS011;3613;48.902;9.204;2023-06-14T06:59:50;7.77;;;4.80;;
7142;SDS011;3613;48.902;9.204;2023-06-14T07:02:16;6.20;;;4.80;;
7142;SDS011;3613;48.902;9.204;2023-06-14T07:04:42;8.00;;;4.60;;
7142;SDS011;3613;48.902;9.204;2023-06-14T07:07:11;5.53;;;4.57;;
7142;SDS011;3613;48.902;9.204;2023-06-14T07:09:37;8.83;;;5.00;;
7142;SDS011;3613;48.902;9.204;2023-06-14T07:12:05;7.57;;;4.80;;
7142;SDS011;3613;48.902;9.204;2023-06-14T07:14:31;6.33;;;4.70;;
7142;SDS011;3613;48.902;9.204;2023-06-14T07:16:58;8.30;;;5.13;;
7142;SDS011;3613;48.902;9.204;2023-06-14T07:19:24;6.83;;;5.07;;
7142;SDS011;3613;48.902;9.204;2023-06-14T07:21:50;7.27;;;5.10;;
7142;SDS011;3613;48.902;9.204;2023-06-14T07:24:18;7.80;;;4.53;;
7142;SDS011;3613;48.902;9.204;2023-06-14T07:26:46;5.80;;;4.67;;
7142;SDS011;3613;48.902;9.204;2023-06-14T07:29:15;6.17;;;4.50;;
7142;SDS011;3613;48.902;9.204;2023-06-14T07:31:43;5.43;;;4.70;;
7142;SDS011;3613;48.902;9.204;2023-06-14T07:34:09;6.87;;;5.30;;
7142;SDS011;3613;48.902;9.204;2023-06-14T07:36:35;6.87;;;4.63;;
7142;SDS011;3613;48.902;9.204;2023-06-14T07:39:01;7.17;;;4.93;;
7142;SDS011;3613;48.902;9.204;2023-06-14T07:41:31;5.07;;;4.27;;
7142;SDS011;3613;48.902;9.204;2023-06-14T07:43:57;9.07;;;5.27;;
7142;SDS011;3613;48.902;9.204;2023-06-14T07:46:23;4.90;;;4.50;;
7142;SDS011;3613;48.902;9.204;2023-06-14T07:48:49;5.53;;;4.70;;
7142;SDS011;3613;48.902;9.204;2023-06-14T07:51:15;6.17;;;4.80;;
7142;SDS011;3613;48.902;9.204;2023-06-14T07:53:41;6.33;;;5.33;;
7142;SDS011;3613;48.902;9.204;2023-06-14T07:56:07;8.77;;;5.33;;
7142;SDS011;3613;48.902;9.204;2023-06-14T07:58:33;6.13;;;4.60;;
7142;SDS011;3613;48.902;9.204;2023-06-14T08:00:58;8.20;;;4.90;;
7142;SDS011;3613;48.902;9.204;2023-06-14T08:03:26;6.97;;;4.57;;
7142;SDS011;3613;48.902;9.204;2023-06-14T08:05:55;6.93;;;4.37;;
7142;SDS011;3613;48.902;9.204;2023-06-14T08:08:20;8.33;;;5.07;;
7142;SDS011;3613;48.902;9.204;2023-06-14T08:10:48;5.77;;;4.70;;
7142;SDS011;3613;48.902;9.204;2023-06-14T08:13:17;6.28;;;4.40;;
7142;SDS011;3613;48.902;9.204;2023-06-14T08:15:45;5.70;;;4.88;;
7142;SDS011;3613;48.902;9.204;2023-06-14T08:18:11;7.10;;;4.95;;
7142;SDS011;3613;48.902;9.204;2023-06-14T08:20:39;7.85;;;5.90;;
7142;SDS011;3613;48.902;9.204;2023-06-14T08:23:06;8.38;;;5.55;;
7142;SDS011;3613;48.902;9.204;2023-06-14T08:25:33;8.50;;;5.28;;
7142;SDS011;3613;48.902;9.204;2023-06-14T08:28:00;13.35;;;5.63;;
7142;SDS011;3613;48.902;9.204;2023-06-14T08:30:26;7.83;;;5.23;;
7142;SDS011;3613;48.902;9.204;2023-06-14T08:32:52;7.83;;;5.57;;
7142;SDS011;3613;48.902;9.204;2023-06-14T08:35:20;6.67;;;4.80;;
7142;SDS011;3613;48.902;9.204;2023-06-14T08:37:48;5.73;;;4.67;;
7142;SDS011;3613;48.902;9.204;2023-06-14T08:40:18;8.53;;;5.43;;
7142;SDS011;3613;48.902;9.204;2023-06-14T08:42:47;6.37;;;5.03;;
7142;SDS011;3613;48.902;9.204;2023-06-14T08:45:18;6.47;;;5.00;;
7142;SDS011;3613;48.902;9.204;2023-06-14T08:47:47;6.43;;;4.87;;
7142;SDS011;3613;48.902;9.204;2023-06-14T08:50:23;5.53;;;4.83;;
7142;SDS011;3613;48.902;9.204;2023-06-14T08:52:55;5.23;;;4.73;;
7142;SDS011;3613;48.902;9.204;2023-06-14T08:55:28;8.10;;;4.90;;
7142;SDS011;3613;48.902;9.204;2023-06-14T08:57:57;7.23;;;4.77;;
7142;SDS011;3613;48.902;9.204;2023-06-14T09:00:24;6.80;;;5.30;;
7142;SDS011;3613;48.902;9.204;2023-06-14T09:02:52;8.00;;;5.10;;
7142;SDS011;3613;48.902;9.204;2023-06-14T09:05:25;7.90;;;4.87;;
7142;SDS011;3613;48.902;9.204;2023-06-14T09:07:52;4.83;;;4.30;;
7142;SDS011;3613;48.902;9.204;2023-06-14T09:10:20;4.78;;;4.38;;
7142;SDS011;3613;48.902;9.204;2023-06-14T09:12:51;5.50;;;4.95;;
7142;SDS011;3613;48.902;9.204;2023-06-14T09:15:17;6.93;;;5.13;;
7142;SDS011;3613;48.902;9.204;2023-06-14T09:17:43;6.72;;;4.70;;
7142;SDS011;3613;48.902;9.204;2023-06-14T09:20:09;6.07;;;4.95;;
7142;SDS011;3613;48.902;9.204;2023-06-14T09:22:36;5.15;;;4.60;;
7142;SDS011;3613;48.902;9.204;2023-06-14T09:25:05;4.93;;;4.40;;
7142;SDS011;3613;48.902;9.204;2023-06-14T09:27:31;5.63;;;4.67;;
7142;SDS011;3613;48.902;9.204;2023-06-14T09:29:57;6.17;;;5.20;;
7142;SDS011;3613;48.902;9.204;2023-06-14T09:32:24;5.63;;;4.53;;
7142;SDS011;3613;48.902;9.204;2023-06-14T09:34:50;5.70;;;4.03;;
7142;SDS011;3613;48.902;9.204;2023-06-14T09:37:29;6.63;;;4.45;;
7142;SDS011;3613;48.902;9.204;2023-06-14T09:40:00;7.07;;;4.53;;
7142;SDS011;3613;48.902;9.204;2023-06-14T09:42:26;4.87;;;4.20;;
7142;SDS011;3613;48.902;9.204;2023-06-14T09:44:53;5.67;;;4.30;;
7142;SDS011;3613;48.902;9.204;2023-06-14T09:47:20;5.20;;;4.13;;
7142;SDS011;3613;48.902;9.204;2023-06-14T09:49:47;7.07;;;4.30;;
7142;SDS011;3613;48.902;9.204;2023-06-14T09:52:19;7.97;;;4.70;;
7142;SDS011;3613;48.902;9.204;2023-06-14T09:54:46;5.27;;;4.77;;
7142;SDS011;3613;48.902;9.204;2023-06-14T09:57:13;4.97;;;4.10;;
7142;SDS011;3613;48.902;9.204;2023-06-14T09:59:44;6.00;;;4.30;;
7142;SDS011;3613;48.902;9.204;2023-06-14T10:05:05;4.67;;;4.00;;
7142;SDS011;3613;48.902;9.204;2023-06-14T10:07:40;5.67;;;4.20;;
7142;SDS011;3613;48.902;9.204;2023-06-14T10:10:13;4.97;;;4.47;;
7142;SDS011;3613;48.902;9.204;2023-06-14T10:12:39;7.40;;;4.20;;
7142;SDS011;3613;48.902;9.204;2023-06-14T10:15:05;4.90;;;4.40;;
7142;SDS011;3613;48.902;9.204;2023-06-14T10:23:07;5.47;;;4.03;;
7142;SDS011;3613;48.902;9.204;2023-06-14T10:25:38;5.87;;;3.97;;
7142;SDS011;3613;48.902;9.204;2023-06-14T10:33:49;4.80;;;4.13;;
7142;SDS011;3613;48.902;9.204;2023-06-14T10:36:29;5.03;;;3.80;;
7142;SDS011;3613;48.902;9.204;2023-06-14T10:42:03;5.70;;;4.00;;
7142;SDS011;3613;48.902;9.204;2023-06-14T10:44:45;4.83;;;3.90;;
7142;SDS011;3613;48.902;9.204;2023-06-14T10:49:53;5.47;;;3.80;;
7142;SDS011;3613;48.902;9.204;2023-06-14T10:52:21;5.63;;;3.67;;
7142;SDS011;3613;48.902;9.204;2023-06-14T10:57:27;7.40;;;6.47;;
7142;SDS011;3613;48.902;9.204;2023-06-14T10:59:55;5.73;;;3.90;;
7142;SDS011;3613;48.902;9.204;2023-06-14T11:05:16;5.83;;;3.60;;
7142;SDS011;3613;48.902;9.204;2023-06-14T11:10:45;4.80;;;3.50;;
7142;SDS011;3613;48.902;9.204;2023-06-14T11:13:13;4.67;;;3.80;;
7142;SDS011;3613;48.902;9.204;2023-06-14T11:15:44;4.33;;;3.93;;
7142;SDS011;3613;48.902;9.204;2023-06-14T11:18:11;5.10;;;3.90;;
7142;SDS011;3613;48.902;9.204;2023-06-14T11:20:39;4.43;;;3.17;;
7142;SDS011;3613;48.902;9.204;2023-06-14T11:23:07;4.10;;;3.70;;
7142;SDS011;3613;48.902;9.204;2023-06-14T11:25:35;5.37;;;3.93;;
7142;SDS011;3613;48.902;9.204;2023-06-14T11:28:03;4.90;;;3.50;;
7142;SDS011;3613;48.902;9.204;2023-06-14T11:30:29;6.30;;;3.97;;
7142;SDS011;3613;48.902;9.204;2023-06-14T11:32:57;3.70;;;3.33;;
7142;SDS011;3613;48.902;9.204;2023-06-14T11:35:23;4.20;;;3.57;;
7142;SDS011;3613;48.902;9.204;2023-06-14T11:37:54;5.72;;;3.40;;
7142;SDS011;3613;48.902;9.204;2023-06-14T11:40:23;4.65;;;3.75;;
7142;SDS011;3613;48.902;9.204;2023-06-14T11:42:49;4.68;;;3.70;;
7142;SDS011;3613;48.902;9.204;2023-06-14T11:45:22;4.78;;;3.65;;
7142;SDS011;3613;48.902;9.204;2023-06-14T11:47:48;3.97;;;3.58;;
7142;SDS011;3613;48.902;9.204;2023-06-14T11:50:14;6.60;;;4.00;;
7142;SDS011;3613;48.902;9.204;2023-06-14T11:52:40;5.65;;;3.80;;
7142;SDS011;3613;48.902;9.204;2023-06-14T11:55:09;5.20;;;3.83;;
7142;SDS011;3613;48.902;9.204;2023-06-14T11:57:35;4.95;;;3.75;;
7142;SDS011;3613;48.902;9.204;2023-06-14T12:00:04;5.05;;;3.50;;
7142;SDS011;3613;48.902;9.204;2023-06-14T12:02:37;5.30;;;3.92;;
7142;SDS011;3613;48.902;9.204;2023-06-14T12:05:08;5.63;;;3.92;;
7142;SDS011;3613;48.902;9.204;2023-06-14T12:07:37;3.75;;;3.38;;
7142;SDS011;3613;48.902;9.204;2023-06-14T12:10:05;4.45;;;4.05;;
7142;SDS011;3613;48.902;9.204;2023-06-14T12:12:35;4.43;;;3.78;;
7142;SDS011;3613;48.902;9.204;2023-06-14T12:15:05;6.38;;;3.88;;
7142;SDS011;3613;48.902;9.204;2023-06-14T12:17:38;7.10;;;4.03;;
7142;SDS011;3613;48.902;9.204;2023-06-14T12:20:09;9.55;;;4.10;;
7142;SDS011;3613;48.902;9.204;2023-06-14T12:22:54;4.22;;;3.55;;
7142;SDS011;3613;48.902;9.204;2023-06-14T12:28:09;5.88;;;3.70;;
7142;SDS011;3613;48.902;9.204;2023-06-14T12:30:37;4.00;;;3.60;;
7142;SDS011;3613;48.902;9.204;2023-06-14T12:33:03;7.40;;;4.18;;
7142;SDS011;3613;48.902;9.204;2023-06-14T12:35:32;5.13;;;3.75;;
7142;SDS011;3613;48.902;9.204;2023-06-14T12:37:58;3.97;;;3.60;;
7142;SDS011;3613;48.902;9.204;2023-06-14T12:40:28;4.32;;;3.75;;
7142;SDS011;3613;48.902;9.204;2023-06-14T12:42:54;4.32;;;3.45;;
7142;SDS011;3613;48.902;9.204;2023-06-14T12:45:22;5.10;;;3.80;;
7142;SDS011;3613;48.902;9.204;2023-06-14T12:47:50;4.07;;;3.70;;
7142;SDS011;3613;48.902;9.204;2023-06-14T12:50:18;4.13;;;3.72;;
7142;SDS011;3613;48.902;9.204;2023-06-14T12:52:47;5.07;;;3.47;;
7142;SDS011;3613;48.902;9.204;2023-06-14T12:55:12;6.30;;;4.43;;
7142;SDS011;3613;48.902;9.204;2023-06-14T12:57:39;4.53;;;4.07;;
7142;SDS011;3613;48.902;9.204;2023-06-14T13:00:05;4.43;;;3.80;;
7142;SDS011;3613;48.902;9.204;2023-06-14T13:02:34;6.15;;;3.47;;
7142;SDS011;3613;48.902;9.204;2023-06-14T13:05:00;9.45;;;4.00;;
7142;SDS011;3613;48.902;9.204;2023-06-14T13:07:28;4.18;;;3.70;;
7142;SDS011;3613;48.902;9.204;2023-06-14T13:09:58;7.57;;;4.30;;
7142;SDS011;3613;48.902;9.204;2023-06-14T13:12:26;5.43;;;3.67;;
7142;SDS011;3613;48.902;9.204;2023-06-14T13:14:52;6.47;;;4.60;;
7142;SDS011;3613;48.902;9.204;2023-06-14T13:17:18;4.82;;;4.32;;
7142;SDS011;3613;48.902;9.204;2023-06-14T13:19:44;7.47;;;4.35;;
7142;SDS011;3613;48.902;9.204;2023-06-14T13:22:10;4.90;;;3.80;;
7142;SDS011;3613;48.902;9.204;2023-06-14T13:24:38;5.18;;;3.95;;
7142;SDS011;3613;48.902;9.204;2023-06-14T13:27:04;7.30;;;3.75;;
7142;SDS011;3613;48.902;9.204;2023-06-14T13:29:30;4.50;;;3.80;;
7142;SDS011;3613;48.902;9.204;2023-06-14T13:31:58;6.60;;;3.80;;
7142;SDS011;3613;48.902;9.204;2023-06-14T13:34:24;4.90;;;3.67;;
7142;SDS011;3613;48.902;9.204;2023-06-14T13:36:49;7.40;;;3.60;;
7142;SDS011;3613;48.902;9.204;2023-06-14T13:39:15;3.90;;;3.60;;
7142;SDS011;3613;48.902;9.204;2023-06-14T13:41:43;5.07;;;3.95;;
7142;SDS011;3613;48.902;9.204;2023-06-14T13:44:09;4.90;;;4.33;;
7142;SDS011;3613;48.902;9.204;2023-06-14T13:46:39;5.57;;;4.30;;
7142;SDS011;3613;48.902;9.204;2023-06-14T13:49:07;4.33;;;3.50;;
7142;SDS011;3613;48.902;9.204;2023-06-14T13:51:39;5.40;;;3.73;;
7142;SDS011;3613;48.902;9.204;2023-06-14T13:54:07;5.60;;;4.00;;
7142;SDS011;3613;48.902;9.204;2023-06-14T13:56:32;4.87;;;4.10;;
7142;SDS011;3613;48.902;9.204;2023-06-14T13:58:58;5.97;;;3.90;;
7142;SDS011;3613;48.902;9.204;2023-06-14T14:01:25;4.10;;;3.67;;
7142;SDS011;3613;48.902;9.204;2023-06-14T14:03:53;5.03;;;3.90;;
7142;SDS011;3613;48.902;9.204;2023-06-14T14:06:27;4.67;;;3.87;;
7142;SDS011;3613;48.902;9.204;2023-06-14T14:08:55;6.10;;;4.27;;
7142;SDS011;3613;48.902;9.204;2023-06-14T14:11:21;6.57;;;4.07;;
7142;SDS011;3613;48.902;9.204;2023-06-14T14:13:47;4.80;;;4.40;;
7142;SDS011;3613;48.902;9.204;2023-06-14T14:16:12;4.33;;;3.77;;
7142;SDS011;3613;48.902;9.204;2023-06-14T14:18:41;4.70;;;3.87;;
7142;SDS011;3613;48.902;9.204;2023-06-14T14:21:06;5.37;;;3.80;;
7142;SDS011;3613;48.902;9.204;2023-06-14T14:23:37;4.43;;;3.77;;
7142;SDS011;3613;48.902;9.204;2023-06-14T14:26:03;5.27;;;4.00;;
7142;SDS011;3613;48.902;9.204;2023-06-14T14:28:29;9.13;;;4.27;;
7142;SDS011;3613;48.902;9.204;2023-06-14T14:30:58;4.63;;;3.70;;
7142;SDS011;3613;48.902;9.204;2023-06-14T14:33:24;6.20;;;3.80;;
7142;SDS011;3613;48.902;9.204;2023-06-14T14:35:52;4.87;;;3.10;;
7142;SDS011;3613;48.902;9.204;2023-06-14T14:38:18;6.20;;;4.00;;
7142;SDS011;3613;48.902;9.204;2023-06-14T14:40:44;4.40;;;3.70;;
7142;SDS011;3613;48.902;9.204;2023-06-14T14:43:10;4.50;;;3.87;;
7142;SDS011;3613;48.902;9.204;2023-06-14T14:45:36;4.57;;;3.43;;
7142;SDS011;3613;48.902;9.204;2023-06-14T14:48:01;5.03;;;3.90;;
7142;SDS011;3613;48.902;9.204;2023-06-14T14:50:30;5.00;;;3.73;;
7142;SDS011;3613;48.902;9.204;2023-06-14T14:52:59;4.57;;;3.80;;
7142;SDS011;3613;48.902;9.204;2023-06-14T14:55:27;5.80;;;3.80;;
7142;SDS011;3613;48.902;9.204;2023-06-14T14:57:53;4.43;;;3.70;;
7142;SDS011;3613;48.902;9.204;2023-06-14T15:00:19;4.00;;;3.60;;
7142;SDS011;3613;48.902;9.204;2023-06-14T15:02:45;5.00;;;3.90;;
7142;SDS011;3613;48.902;9.204;2023-06-14T15:05:11;4.87;;;3.70;;
7142;SDS011;3613;48.902;9.204;2023-06-14T15:07:36;5.33;;;4.27;;
7142;SDS011;3613;48.902;9.204;2023-06-14T15:10:05;4.80;;;4.00;;
7142;SDS011;3613;48.902;9.204;2023-06-14T15:12:34;5.90;;;3.70;;
7142;SDS011;3613;48.902;9.204;2023-06-14T15:15:00;6.77;;;4.20;;
7142;SDS011;3613;48.902;9.204;2023-06-14T15:17:26;5.73;;;3.80;;
7142;SDS011;3613;48.902;9.204;2023-06-14T15:19:54;4.70;;;3.80;;
7142;SDS011;3613;48.902;9.204;2023-06-14T15:22:24;4.30;;;3.63;;
7142;SDS011;3613;48.902;9.204;2023-06-14T15:24:50;5.13;;;3.30;;
7142;SDS011;3613;48.902;9.204;2023-06-14T15:27:16;5.03;;;3.60;;
7142;SDS011;3613;48.902;9.204;2023-06-14T15:29:42;4.00;;;3.57;;
7142;SDS011;3613;48.902;9.204;2023-06-14T15:32:11;4.40;;;3.80;;
7142;SDS011;3613;48.902;9.204;2023-06-14T15:34:37;4.97;;;3.77;;
7142;SDS011;3613;48.902;9.204;2023-06-14T15:37:04;4.70;;;3.83;;
7142;SDS011;3613;48.902;9.204;2023-06-14T15:39:31;5.30;;;4.03;;
7142;SDS011;3613;48.902;9.204;2023-06-14T15:41:59;5.83;;;3.90;;
7142;SDS011;3613;48.902;9.204;2023-06-14T15:44:26;3.90;;;3.60;;
7142;SDS011;3613;48.902;9.204;2023-06-14T15:46:51;5.03;;;3.80;;
7142;SDS011;3613;48.902;9.204;2023-06-14T15:49:19;6.33;;;4.17;;
7142;SDS011;3613;48.902;9.204;2023-06-14T15:51:48;5.53;;;3.43;;